createdAt,value
2022-09-10T00:01:12.764Z,100.00
2022-09-10T00:03:39.613Z,100.00
2022-09-10T00:06:08.915Z,100.00
2022-09-10T00:08:35.730Z,100.00
2022-09-10T00:11:06.912Z,100.00
2022-09-10T00:13:34.558Z,100.00
2022-09-10T00:16:04.368Z,100.00
2022-09-10T00:18:31.796Z,100.00
2022-09-10T00:20:59.667Z,100.00
2022-09-10T00:23:28.718Z,100.00
2022-09-10T00:25:57.867Z,100.00
2022-09-10T00:28:27.962Z,100.00
2022-09-10T00:30:55.455Z,100.00
2022-09-10T00:33:23.992Z,100.00
2022-09-10T00:35:50.914Z,100.00
2022-09-10T00:38:18.622Z,100.00
2022-09-10T00:40:45.633Z,100.00
2022-09-10T00:43:14.783Z,100.00
2022-09-10T00:45:45.434Z,100.00
2022-09-10T00:48:16.818Z,100.00
2022-09-10T00:50:46.743Z,100.00
2022-09-10T00:53:16.055Z,100.00
2022-09-10T00:55:44.090Z,100.00
2022-09-10T00:58:13.940Z,100.00
2022-09-10T01:00:41.888Z,100.00
2022-09-10T01:03:13.762Z,100.00
2022-09-10T01:05:42.662Z,100.00
2022-09-10T01:08:13.565Z,100.00
2022-09-10T01:10:52.474Z,100.00
2022-09-10T01:13:32.787Z,100.00
2022-09-10T01:16:10.164Z,100.00
2022-09-10T01:18:49.114Z,100.00
2022-09-10T01:21:22.223Z,100.00
2022-09-10T01:24:16.527Z,100.00
2022-09-10T01:27:10.856Z,100.00
2022-09-10T01:29:48.708Z,100.00
2022-09-10T01:32:22.330Z,100.00
2022-09-10T01:34:56.669Z,100.00
2022-09-10T01:37:28.675Z,100.00
2022-09-10T01:39:56.647Z,100.00
2022-09-10T01:42:25.168Z,100.00
2022-09-10T01:44:55.111Z,100.00
2022-09-10T01:47:52.081Z,100.00
2022-09-10T01:50:25.760Z,100.00
2022-09-10T01:53:14.479Z,100.00
2022-09-10T01:55:50.454Z,100.00
2022-09-10T01:58:22.672Z,100.00
2022-09-10T02:01:07.828Z,100.00
2022-09-10T02:03:37.405Z,100.00
2022-09-10T02:06:07.283Z,100.00
2022-09-10T02:08:39.432Z,100.00
2022-09-10T02:11:11.840Z,100.00
2022-09-10T02:13:45.122Z,100.00
2022-09-10T02:16:31.227Z,100.00
2022-09-10T02:18:59.744Z,100.00
2022-09-10T02:21:26.955Z,100.00
2022-09-10T02:23:57.163Z,100.00
2022-09-10T02:26:25.964Z,100.00
2022-09-10T02:28:54.652Z,100.00
2022-09-10T02:31:22.566Z,100.00
2022-09-10T02:33:51.395Z,100.00
2022-09-10T02:36:18.713Z,100.00
2022-09-10T02:38:45.776Z,100.00
2022-09-10T02:41:14.211Z,100.00
2022-09-10T02:43:42.756Z,100.00
2022-09-10T02:46:10.023Z,100.00
2022-09-10T02:48:38.818Z,100.00
2022-09-10T02:51:08.843Z,100.00
2022-09-10T02:53:37.924Z,100.00
2022-09-10T02:56:07.710Z,100.00
2022-09-10T02:58:36.072Z,100.00
2022-09-10T03:01:08.870Z,100.00
2022-09-10T03:03:36.615Z,100.00
2022-09-10T03:06:04.289Z,100.00
2022-09-10T03:08:32.981Z,100.00
2022-09-10T03:10:59.969Z,100.00
2022-09-10T03:13:30.536Z,100.00
2022-09-10T03:15:59.938Z,100.00
2022-09-10T03:18:28.073Z,100.00
2022-09-10T03:20:55.177Z,100.00
2022-09-10T03:23:22.084Z,100.00
2022-09-10T03:25:50.437Z,100.00
2022-09-10T03:28:24.559Z,100.00
2022-09-10T03:30:52.021Z,100.00
2022-09-10T03:33:21.331Z,100.00
2022-09-10T03:35:48.470Z,100.00
2022-09-10T03:38:15.217Z,100.00
2022-09-10T03:40:42.164Z,100.00
2022-09-10T03:43:13.102Z,100.00
2022-09-10T03:45:40.122Z,100.00
2022-09-10T03:48:07.142Z,100.00
2022-09-10T03:50:34.190Z,100.00
2022-09-10T03:53:03.951Z,100.00
2022-09-10T03:55:31.050Z,100.00
2022-09-10T03:57:58.529Z,100.00
2022-09-10T04:00:27.191Z,100.00
2022-09-10T04:02:54.054Z,100.00
2022-09-10T04:05:21.657Z,100.00
2022-09-10T04:07:49.041Z,100.00
2022-09-10T04:10:16.290Z,100.00
2022-09-10T04:12:43.612Z,100.00
2022-09-10T04:15:10.929Z,100.00
2022-09-10T04:17:39.309Z,100.00
2022-09-10T04:20:07.319Z,100.00
2022-09-10T04:22:34.871Z,100.00
2022-09-10T04:25:01.961Z,100.00
2022-09-10T04:27:28.767Z,100.00
2022-09-10T04:29:56.628Z,100.00
2022-09-10T04:32:23.880Z,100.00
2022-09-10T04:34:52.294Z,100.00
2022-09-10T04:37:19.536Z,100.00
2022-09-10T04:39:47.349Z,100.00
2022-09-10T04:42:15.461Z,100.00
2022-09-10T04:44:42.334Z,100.00
2022-09-10T04:47:09.215Z,100.00
2022-09-10T04:49:36.177Z,100.00
2022-09-10T04:52:04.930Z,100.00
2022-09-10T04:54:33.650Z,100.00
2022-09-10T04:57:01.164Z,100.00
2022-09-10T04:59:29.757Z,100.00
2022-09-10T05:01:57.760Z,100.00
2022-09-10T05:04:25.535Z,100.00
2022-09-10T05:06:53.543Z,100.00
2022-09-10T05:09:21.776Z,100.00
2022-09-10T05:11:49.875Z,100.00
2022-09-10T05:14:19.173Z,100.00
2022-09-10T05:16:47.043Z,100.00
2022-09-10T05:19:17.952Z,100.00
2022-09-10T05:21:53.348Z,100.00
2022-09-10T05:24:21.496Z,100.00
2022-09-10T05:26:48.702Z,100.00
2022-09-10T05:29:16.781Z,100.00
2022-09-10T05:31:44.494Z,100.00
2022-09-10T05:34:11.369Z,100.00
2022-09-10T05:36:38.421Z,100.00
2022-09-10T05:39:05.468Z,100.00
2022-09-10T05:41:37.739Z,100.00
2022-09-10T05:44:05.597Z,100.00
2022-09-10T05:46:33.354Z,100.00
2022-09-10T05:49:07.889Z,100.00
2022-09-10T05:51:34.862Z,100.00
2022-09-10T05:54:03.749Z,100.00
2022-09-10T05:56:32.460Z,100.00
2022-09-10T05:59:00.900Z,100.00
2022-09-10T06:01:29.202Z,100.00
2022-09-10T06:03:56.435Z,100.00
2022-09-10T06:06:24.149Z,100.00
2022-09-10T06:08:57.350Z,100.00
2022-09-10T06:11:38.695Z,100.00
2022-09-10T06:14:07.502Z,100.00
2022-09-10T06:16:35.022Z,100.00
2022-09-10T06:19:03.010Z,100.00
2022-09-10T06:21:29.987Z,100.00
2022-09-10T06:23:58.353Z,100.00
2022-09-10T06:26:27.862Z,100.00
2022-09-10T06:28:58.571Z,100.00
2022-09-10T06:31:27.684Z,100.00
2022-09-10T06:33:55.623Z,100.00
2022-09-10T06:36:27.658Z,100.00
2022-09-10T06:38:57.897Z,100.00
2022-09-10T06:41:26.015Z,100.00
2022-09-10T06:44:04.545Z,100.00
2022-09-10T06:47:30.523Z,100.00
2022-09-10T06:49:34.543Z,100.00
2022-09-10T06:52:04.650Z,100.00
2022-09-10T06:54:31.975Z,100.00
2022-09-10T06:57:10.318Z,100.00
2022-09-10T06:59:37.389Z,100.00
2022-09-10T07:02:05.616Z,100.00
2022-09-10T07:04:32.559Z,100.00
2022-09-10T07:07:00.886Z,100.00
2022-09-10T07:09:28.788Z,100.00
2022-09-10T07:11:57.847Z,100.00
2022-09-10T07:14:25.526Z,100.00
2022-09-10T07:16:53.523Z,100.00
2022-09-10T07:19:25.365Z,100.00
2022-09-10T07:21:52.609Z,100.00
2022-09-10T07:24:20.269Z,98.91
2022-09-10T07:27:07.365Z,97.77
2022-09-10T07:29:35.801Z,97.03
2022-09-10T07:32:04.520Z,98.23
2022-09-10T07:34:33.766Z,96.94
2022-09-10T07:37:01.905Z,95.57
2022-09-10T07:39:30.522Z,95.09
2022-09-10T07:41:58.138Z,95.98
2022-09-10T07:44:28.302Z,95.56
2022-09-10T07:46:59.693Z,95.84
2022-09-10T07:49:27.869Z,95.10
2022-09-10T07:51:59.851Z,95.62
2022-09-10T07:54:31.518Z,94.91
2022-09-10T07:56:59.823Z,94.95
2022-09-10T07:59:27.352Z,95.52
2022-09-10T08:02:01.946Z,93.88
2022-09-10T08:04:36.551Z,94.27
2022-09-10T08:07:07.517Z,94.93
2022-09-10T08:09:37.557Z,93.07
2022-09-10T08:12:07.728Z,93.24
2022-09-10T08:14:34.802Z,92.99
2022-09-10T08:17:02.174Z,92.25
2022-09-10T08:19:29.814Z,91.96
2022-09-10T08:21:59.549Z,90.13
2022-09-10T08:24:32.742Z,90.87
2022-09-10T08:26:59.948Z,92.47
2022-09-10T08:29:26.793Z,89.95
2022-09-10T08:31:53.773Z,89.58
2022-09-10T08:34:27.163Z,88.85
2022-09-10T08:37:03.471Z,88.19
2022-09-10T08:39:33.755Z,88.50
2022-09-10T08:42:05.653Z,86.35
2022-09-10T08:44:40.652Z,85.52
2022-09-10T08:47:21.268Z,83.43
2022-09-10T08:49:54.406Z,85.38
2022-09-10T08:52:29.886Z,88.42
2022-09-10T08:55:04.554Z,88.61
2022-09-10T08:57:34.928Z,88.73
2022-09-10T09:00:03.730Z,89.47
2022-09-10T09:02:49.160Z,88.32
2022-09-10T09:05:20.518Z,87.59
2022-09-10T09:07:51.338Z,86.40
2022-09-10T09:10:32.609Z,85.11
2022-09-10T09:13:26.617Z,84.07
2022-09-10T09:16:05.030Z,84.14
2022-09-10T09:18:38.348Z,82.39
2022-09-10T09:21:13.105Z,81.98
2022-09-10T09:24:11.815Z,80.22
2022-09-10T09:26:41.687Z,78.99
2022-09-10T09:29:14.461Z,77.81
2022-09-10T09:31:46.541Z,78.59
2022-09-10T09:34:22.097Z,82.66
2022-09-10T09:36:52.791Z,82.62
2022-09-10T09:39:25.783Z,80.60
2022-09-10T09:42:04.628Z,80.04
2022-09-10T09:44:38.897Z,82.35
2022-09-10T09:47:07.707Z,82.64
2022-09-10T09:49:36.010Z,81.66
2022-09-10T09:52:15.253Z,78.74
2022-09-10T09:55:13.070Z,78.81
2022-09-10T09:57:37.155Z,78.33
2022-09-10T10:00:36.053Z,78.49
2022-09-10T10:03:15.805Z,73.08
2022-09-10T10:05:42.976Z,72.42
2022-09-10T10:08:28.985Z,74.35
2022-09-10T10:10:56.149Z,76.26
2022-09-10T10:13:24.673Z,79.04
2022-09-10T10:15:51.772Z,78.74
2022-09-10T10:18:31.977Z,71.40
2022-09-10T10:21:14.278Z,71.55
2022-09-10T10:23:41.162Z,65.64
2022-09-10T10:26:26.272Z,70.73
2022-09-10T10:28:59.953Z,68.32
2022-09-10T10:31:39.945Z,72.81
2022-09-10T10:34:34.614Z,74.52
2022-09-10T10:37:08.829Z,69.20
2022-09-10T10:39:53.265Z,66.84
2022-09-10T10:42:27.943Z,62.04
2022-09-10T10:45:17.126Z,58.08
2022-09-10T10:47:48.799Z,54.02
2022-09-10T10:50:30.022Z,62.02
2022-09-10T10:53:22.837Z,65.01
2022-09-10T10:55:57.276Z,61.17
2022-09-10T10:58:53.539Z,62.67
2022-09-10T11:01:25.214Z,63.89
2022-09-10T11:04:01.045Z,63.44
2022-09-10T11:06:35.257Z,63.47
2022-09-10T11:09:06.416Z,56.84
2022-09-10T11:11:39.378Z,51.78
2022-09-10T11:14:19.079Z,53.05
2022-09-10T11:16:55.347Z,49.08
2022-09-10T11:19:35.695Z,50.65
2022-09-10T11:22:09.683Z,52.02
2022-09-10T11:24:44.034Z,48.04
2022-09-10T11:27:14.601Z,49.89
2022-09-10T11:29:48.319Z,49.40
2022-09-10T11:32:27.044Z,48.36
2022-09-10T11:35:02.468Z,50.46
2022-09-10T11:37:43.742Z,52.49
2022-09-10T11:40:17.654Z,46.39
2022-09-10T11:42:51.396Z,50.04
2022-09-10T11:45:23.135Z,47.49
2022-09-10T11:47:57.214Z,47.83
2022-09-10T11:50:34.552Z,51.20
2022-09-10T11:53:04.030Z,47.78
2022-09-10T11:55:40.394Z,51.65
2022-09-10T11:58:17.592Z,45.69
2022-09-10T12:00:55.174Z,45.16
2022-09-10T12:03:53.052Z,46.83
2022-09-10T12:06:26.644Z,44.93
2022-09-10T12:09:05.900Z,47.28
2022-09-10T12:11:40.935Z,51.98
2022-09-10T12:14:13.830Z,45.07
2022-09-10T12:16:46.366Z,44.75
2022-09-10T12:19:23.094Z,53.39
2022-09-10T12:21:53.163Z,51.77
2022-09-10T12:24:27.725Z,52.02
2022-09-10T12:26:55.181Z,49.51
2022-09-10T12:29:33.236Z,54.32
2022-09-10T12:32:29.074Z,47.68
2022-09-10T12:35:46.708Z,45.58
2022-09-10T12:38:50.944Z,47.74
2022-09-10T12:41:57.598Z,53.96
2022-09-10T12:44:45.918Z,55.99
2022-09-10T12:47:42.136Z,51.57
2022-09-10T12:50:46.346Z,50.61
2022-09-10T12:53:55.387Z,57.80
2022-09-10T12:56:50.545Z,61.13
2022-09-10T12:59:39.684Z,58.21
2022-09-10T13:02:20.639Z,61.34
2022-09-10T13:04:54.915Z,61.64
2022-09-10T13:07:25.592Z,63.44
2022-09-10T13:10:01.756Z,67.57
2022-09-10T13:12:32.751Z,69.11
2022-09-10T13:15:02.736Z,64.84
2022-09-10T13:17:38.610Z,65.35
2022-09-10T13:20:29.592Z,66.92
2022-09-10T13:22:58.501Z,69.43
2022-09-10T13:25:35.035Z,72.01
2022-09-10T13:28:02.321Z,69.13
2022-09-10T13:30:31.083Z,67.86
2022-09-10T13:33:00.532Z,65.68
2022-09-10T13:36:02.546Z,64.01
2022-09-10T13:38:54.036Z,65.93
2022-09-10T13:41:49.868Z,65.24
2022-09-10T13:44:33.275Z,66.39
2022-09-10T13:47:09.411Z,66.56
2022-09-10T13:49:44.697Z,64.69
2022-09-10T13:52:15.449Z,64.28
2022-09-10T13:54:47.637Z,65.42
2022-09-10T13:57:19.393Z,66.03
2022-09-10T13:59:50.270Z,65.98
2022-09-10T14:02:21.436Z,66.76
2022-09-10T14:04:48.714Z,66.45
2022-09-10T14:07:20.292Z,68.66
2022-09-10T14:09:49.714Z,65.81
2022-09-10T14:12:20.962Z,65.10
2022-09-10T14:14:52.273Z,66.55
2022-09-10T14:17:24.140Z,66.52
2022-09-10T14:19:56.552Z,66.76
2022-09-10T14:22:26.050Z,67.43
2022-09-10T14:33:53.118Z,69.23
2022-09-10T14:36:23.136Z,70.76
2022-09-10T14:38:56.315Z,67.84
2022-09-10T14:41:26.323Z,65.97
2022-09-10T14:44:14.997Z,65.37
2022-09-10T14:46:51.675Z,65.15
2022-09-10T14:49:26.708Z,68.10
2022-09-10T14:51:53.791Z,68.21
2022-09-10T14:54:20.847Z,66.36
2022-09-10T14:56:48.729Z,68.58
2022-09-10T14:59:18.568Z,69.51
2022-09-10T15:01:48.711Z,71.38
2022-09-10T15:04:17.555Z,71.35
2022-09-10T15:06:45.856Z,71.06
2022-09-10T15:09:13.458Z,71.15
2022-09-10T15:11:49.048Z,72.48
2022-09-10T15:14:17.183Z,72.45
2022-09-10T15:16:44.234Z,72.92
2022-09-10T15:19:11.763Z,73.67
2022-09-10T15:21:39.562Z,73.18
2022-09-10T15:24:12.590Z,76.08
2022-09-10T15:26:39.412Z,74.63
2022-09-10T15:29:06.252Z,74.58
2022-09-10T15:31:33.092Z,74.81
2022-09-10T15:34:00.085Z,74.72
2022-09-10T15:36:28.520Z,74.99
2022-09-10T15:38:55.814Z,75.44
2022-09-10T15:41:23.971Z,75.74
2022-09-10T15:43:51.020Z,76.98
2022-09-10T15:46:20.143Z,77.26
2022-09-10T15:48:47.675Z,77.60
2022-09-10T15:51:15.837Z,78.40
2022-09-10T15:53:43.625Z,77.98
2022-09-10T15:56:11.876Z,77.78
2022-09-10T15:58:40.816Z,77.67
2022-09-10T16:01:11.507Z,78.26
2022-09-10T16:03:39.276Z,78.58
2022-09-10T16:06:07.570Z,80.11
2022-09-10T16:08:34.435Z,79.61
2022-09-10T16:11:07.958Z,79.25
2022-09-10T16:13:35.713Z,79.23
2022-09-10T16:16:06.843Z,79.74
2022-09-10T16:18:33.921Z,80.29
2022-09-10T16:21:09.367Z,81.42
2022-09-10T16:23:37.220Z,80.57
2022-09-10T16:26:06.182Z,81.00
2022-09-10T16:28:33.323Z,81.41
2022-09-10T16:31:13.763Z,81.87
2022-09-10T16:33:40.790Z,81.35
2022-09-10T16:36:08.478Z,81.80
2022-09-10T16:38:35.507Z,81.15
2022-09-10T16:41:02.600Z,81.94
2022-09-10T16:43:31.273Z,82.11
2022-09-10T16:45:58.121Z,82.46
2022-09-10T16:48:26.198Z,82.44
2022-09-10T16:51:01.792Z,82.55
2022-09-10T16:53:28.541Z,82.42
2022-09-10T16:56:01.045Z,82.65
2022-09-10T16:58:30.905Z,82.99
2022-09-10T17:00:59.653Z,82.95
2022-09-10T17:03:29.926Z,83.22
2022-09-10T17:05:56.988Z,83.32
2022-09-10T17:08:23.941Z,83.06
2022-09-10T17:10:50.696Z,83.53
2022-09-10T17:13:17.492Z,84.06
2022-09-10T17:15:44.626Z,83.84
2022-09-10T17:18:14.564Z,84.82
2022-09-10T17:20:43.169Z,83.82
2022-09-10T17:23:11.050Z,84.14
2022-09-10T17:25:38.199Z,84.42
2022-09-10T17:28:05.388Z,85.21
2022-09-10T17:30:32.196Z,85.88
2022-09-10T17:32:59.706Z,86.32
2022-09-10T17:35:26.759Z,86.65
2022-09-10T17:37:54.982Z,87.29
2022-09-10T17:40:21.769Z,87.26
2022-09-10T17:42:49.021Z,87.29
2022-09-10T17:45:16.219Z,87.49
2022-09-10T17:47:43.008Z,88.06
2022-09-10T17:50:10.217Z,88.17
2022-09-10T17:52:36.968Z,88.96
2022-09-10T17:55:05.842Z,89.22
2022-09-10T17:57:32.670Z,89.89
2022-09-10T17:59:59.458Z,90.30
2022-09-10T18:02:26.256Z,90.58
2022-09-10T18:04:53.322Z,90.51
2022-09-10T18:07:20.297Z,90.43
2022-09-10T18:09:47.590Z,90.71
2022-09-10T18:12:16.204Z,90.75
2022-09-10T18:14:43.010Z,91.02
2022-09-10T18:17:09.909Z,91.51
2022-09-10T18:19:36.688Z,92.03
2022-09-10T18:22:03.493Z,92.00
2022-09-10T18:24:30.364Z,92.15
2022-09-10T18:26:57.928Z,93.16
2022-09-10T18:29:30.003Z,93.28
2022-09-10T18:31:58.551Z,92.83
2022-09-10T18:34:27.954Z,92.85
2022-09-10T18:36:57.546Z,92.96
2022-09-10T18:39:25.650Z,93.26
2022-09-10T18:41:52.902Z,93.51
2022-09-10T18:44:21.846Z,94.14
2022-09-10T18:46:51.045Z,93.84
2022-09-10T18:49:21.406Z,93.68
2022-09-10T18:51:48.737Z,93.41
2022-09-10T18:54:17.112Z,93.05
2022-09-10T18:56:45.072Z,92.81
2022-09-10T18:59:13.142Z,92.93
2022-09-10T19:01:43.219Z,93.33
2022-09-10T19:04:13.321Z,93.36
2022-09-10T19:06:43.259Z,93.96
2022-09-10T19:09:13.001Z,94.45
2022-09-10T19:11:41.855Z,94.51
2022-09-10T19:14:14.358Z,95.85
2022-09-10T19:16:41.670Z,97.03
2022-09-10T19:19:18.581Z,96.85
2022-09-10T19:21:48.511Z,97.64
2022-09-10T19:24:16.738Z,96.67
2022-09-10T19:26:44.535Z,96.28
2022-09-10T19:29:12.903Z,96.26
2022-09-10T19:31:40.961Z,95.78
2022-09-10T19:34:10.138Z,96.15
2022-09-10T19:36:37.170Z,96.25
2022-09-10T19:39:07.469Z,96.08
2022-09-10T19:41:35.579Z,96.29
2022-09-10T19:44:03.661Z,96.27
2022-09-10T19:46:31.312Z,96.93
2022-09-10T19:48:59.914Z,97.33
2022-09-10T19:51:28.858Z,97.27
2022-09-10T19:53:56.307Z,97.68
2022-09-10T19:56:27.377Z,97.80
2022-09-10T19:58:58.564Z,98.35
2022-09-10T20:01:27.649Z,99.09
2022-09-10T20:03:55.910Z,99.55
2022-09-10T20:06:25.504Z,99.85
2022-09-10T20:08:52.750Z,99.76
2022-09-10T20:11:21.633Z,99.69
2022-09-10T20:13:54.218Z,100.00
2022-09-10T20:16:21.130Z,100.00
2022-09-10T20:18:51.568Z,100.00
2022-09-10T20:21:22.115Z,100.00
2022-09-10T20:23:51.596Z,100.00
2022-09-10T20:26:19.354Z,100.00
2022-09-10T20:28:52.819Z,100.00
2022-09-10T20:31:20.766Z,100.00
2022-09-10T20:33:49.226Z,100.00
2022-09-10T20:36:17.584Z,100.00
2022-09-10T20:38:45.361Z,100.00
2022-09-10T20:41:12.281Z,100.00
2022-09-10T20:43:39.640Z,100.00
2022-09-10T20:46:14.348Z,99.97
2022-09-10T20:48:44.826Z,99.69
2022-09-10T20:51:14.223Z,99.12
2022-09-10T20:53:41.768Z,98.11
2022-09-10T20:56:11.501Z,97.65
2022-09-10T20:58:39.182Z,97.13
2022-09-10T21:01:09.948Z,97.56
2022-09-10T21:03:37.546Z,96.58
2022-09-10T21:06:04.622Z,96.46
2022-09-10T21:08:31.762Z,96.46
2022-09-10T21:11:02.723Z,96.24
2022-09-10T21:13:29.596Z,96.67
2022-09-10T21:16:11.310Z,97.58
2022-09-10T21:18:41.053Z,97.74
2022-09-10T21:21:09.348Z,96.97
2022-09-10T21:23:42.086Z,97.41
2022-09-10T21:26:08.901Z,97.25
2022-09-10T21:28:35.725Z,97.70
2022-09-10T21:31:03.558Z,98.14
2022-09-10T21:33:32.024Z,99.07
2022-09-10T21:36:00.316Z,99.57
2022-09-10T21:38:27.183Z,99.53
2022-09-10T21:40:57.630Z,99.81
2022-09-10T21:43:25.166Z,98.26
2022-09-10T21:45:52.353Z,97.88
2022-09-10T21:48:19.618Z,97.37
2022-09-10T21:50:48.264Z,96.63
2022-09-10T21:53:17.002Z,95.22
2022-09-10T21:55:43.834Z,94.18
2022-09-10T21:58:10.662Z,94.58
2022-09-10T22:00:37.582Z,95.57
2022-09-10T22:03:04.335Z,96.10
2022-09-10T22:05:31.130Z,95.16
2022-09-10T22:07:59.283Z,95.27
2022-09-10T22:10:26.607Z,95.09
2022-09-10T22:12:53.417Z,95.74
2022-09-10T22:15:20.141Z,94.97
2022-09-10T22:17:46.873Z,95.60
2022-09-10T22:20:13.577Z,96.03
2022-09-10T22:22:40.312Z,96.85
2022-09-10T22:25:09.285Z,97.53
2022-09-10T22:27:36.069Z,97.89
2022-09-10T22:30:04.762Z,97.89
2022-09-10T22:32:33.968Z,97.85
2022-09-10T22:35:01.276Z,98.04
2022-09-10T22:37:28.123Z,97.89
2022-09-10T22:39:55.278Z,98.08
2022-09-10T22:42:23.483Z,97.86
2022-09-10T22:44:50.167Z,97.81
2022-09-10T22:47:16.961Z,97.40
2022-09-10T22:49:46.477Z,97.70
2022-09-10T22:52:13.551Z,97.52
2022-09-10T22:54:40.586Z,97.78
2022-09-10T22:57:08.403Z,98.02
2022-09-10T22:59:37.864Z,98.00
2022-09-10T23:02:04.912Z,98.17
2022-09-10T23:04:31.763Z,98.27
2022-09-10T23:06:58.591Z,98.21
2022-09-10T23:09:25.577Z,98.26
2022-09-10T23:11:52.636Z,98.39
2022-09-10T23:14:21.815Z,98.61
2022-09-10T23:16:51.929Z,98.42
2022-09-10T23:19:21.721Z,98.26
2022-09-10T23:21:51.170Z,98.54
2022-09-10T23:24:20.107Z,99.35
2022-09-10T23:26:47.111Z,99.80
2022-09-10T23:29:16.895Z,100.00
2022-09-10T23:31:46.025Z,100.00
2022-09-10T23:34:16.082Z,100.00
2022-09-10T23:36:45.627Z,100.00
2022-09-10T23:39:14.473Z,100.00
2022-09-10T23:41:41.834Z,100.00
2022-09-10T23:44:09.127Z,100.00
2022-09-10T23:46:36.718Z,100.00
2022-09-10T23:49:04.648Z,100.00
2022-09-10T23:51:33.369Z,100.00
2022-09-10T23:54:00.197Z,100.00
2022-09-10T23:56:28.528Z,100.00
2022-09-10T23:58:56.246Z,100.00
